createdAt,value
2019-01-21T00:00:31.984Z,-0.90
2019-01-21T00:05:29.003Z,-1.13
2019-01-21T00:10:25.935Z,-0.92
2019-01-21T00:15:23.343Z,-1.09
2019-01-21T00:20:20.394Z,-0.95
2019-01-21T00:25:17.310Z,-0.86
2019-01-21T00:30:14.246Z,-0.79
2019-01-21T00:35:11.146Z,-0.95
2019-01-21T00:40:16.261Z,-0.84
2019-01-21T00:45:13.662Z,-0.78
2019-01-21T00:50:12.538Z,-0.86
2019-01-21T00:55:12.029Z,-0.86
2019-01-21T01:00:19.667Z,-0.98
2019-01-21T01:05:17.796Z,-0.98
2019-01-21T01:10:15.026Z,-0.88
2019-01-21T01:15:13.745Z,-0.88
2019-01-21T01:20:14.698Z,-0.81
2019-01-21T01:25:11.698Z,-1.00
2019-01-21T01:30:12.573Z,-1.02
2019-01-21T01:35:11.191Z,-1.08
2019-01-21T01:40:12.273Z,-1.10
2019-01-21T01:45:14.447Z,-1.34
2019-01-21T01:50:11.652Z,-1.28
2019-01-21T01:55:10.001Z,-1.27
2019-01-21T02:00:14.414Z,-1.27
2019-01-21T02:05:11.816Z,-1.29
2019-01-21T02:10:11.516Z,-1.28
2019-01-21T02:15:11.923Z,-1.24
2019-01-21T02:20:16.097Z,-1.35
2019-01-21T02:25:13.154Z,-1.35
2019-01-21T02:30:24.045Z,-1.54
2019-01-21T02:35:26.395Z,-1.54
2019-01-21T02:40:40.951Z,-1.48
2019-01-21T02:46:06.346Z,-1.56
2019-01-21T02:51:44.088Z,-1.46
2019-01-21T02:56:52.345Z,-1.45
2019-01-21T03:02:17.578Z,-1.40
2019-01-21T03:07:44.353Z,-1.54
2019-01-21T03:12:50.586Z,-1.48
2019-01-21T03:18:15.376Z,-1.68
2019-01-21T03:23:42.009Z,-1.48
2019-01-21T03:28:59.125Z,-1.79
2019-01-21T03:34:13.515Z,-1.55
2019-01-21T03:39:52.572Z,-1.41
2019-01-21T03:45:33.281Z,-1.66
2019-01-21T03:51:10.927Z,-1.51
2019-01-21T03:56:10.155Z,-1.53
2019-01-21T04:01:29.391Z,-1.54
2019-01-21T04:06:40.787Z,-1.65
2019-01-21T04:11:45.818Z,-1.43
2019-01-21T04:17:39.441Z,-1.60
2019-01-21T04:22:46.795Z,-1.57
2019-01-21T04:28:01.192Z,-1.37
2019-01-21T04:33:35.833Z,-1.56
2019-01-21T04:39:01.109Z,-1.39
2019-01-21T04:44:14.998Z,-1.15
2019-01-21T04:49:22.859Z,-1.29
2019-01-21T04:54:55.964Z,-1.39
2019-01-21T05:00:19.626Z,-1.16
2019-01-21T05:05:51.818Z,-1.28
2019-01-21T05:11:15.724Z,-1.16
2019-01-21T05:16:20.983Z,-0.91
2019-01-21T05:21:47.905Z,-1.17
2019-01-21T05:27:19.508Z,-1.14
2019-01-21T05:32:27.783Z,-1.34
2019-01-21T05:37:45.062Z,-1.66
2019-01-21T05:43:06.061Z,-2.05
2019-01-21T05:48:49.046Z,-1.55
2019-01-21T05:54:24.261Z,-1.50
2019-01-21T05:59:38.781Z,-1.54
2019-01-21T06:05:04.982Z,-1.51
2019-01-21T06:10:16.243Z,-1.59
2019-01-21T06:15:37.288Z,-1.80
2019-01-21T06:21:00.555Z,-1.66
2019-01-21T06:26:12.616Z,-1.25
2019-01-21T06:31:29.559Z,-1.21
2019-01-21T06:36:31.967Z,-1.33
2019-01-21T06:42:17.599Z,-1.28
2019-01-21T06:48:04.373Z,-1.20
2019-01-21T06:53:20.889Z,-1.10
2019-01-21T06:58:52.612Z,-1.05
2019-01-21T07:04:28.726Z,-1.21
2019-01-21T07:09:31.101Z,-0.86
2019-01-21T07:14:51.520Z,-1.43
2019-01-21T07:20:14.975Z,-1.39
2019-01-21T07:25:28.860Z,-1.27
2019-01-21T07:30:43.327Z,-1.14
2019-01-21T07:36:28.533Z,-1.21
2019-01-21T07:42:06.169Z,-1.27
2019-01-21T07:47:53.175Z,-1.02
2019-01-21T07:53:28.219Z,-1.02
2019-01-21T07:58:51.674Z,-1.17
2019-01-21T08:04:36.863Z,-1.22
2019-01-21T08:10:06.359Z,-0.98
2019-01-21T08:15:26.423Z,-0.68
2019-01-21T08:20:43.523Z,-0.62
2019-01-21T08:26:07.006Z,-0.36
2019-01-21T08:31:16.106Z,-0.11
2019-01-21T08:36:27.491Z,-0.89
2019-01-21T08:41:53.675Z,-0.24
2019-01-21T08:47:14.381Z,-0.64
2019-01-21T08:52:37.152Z,-0.44
2019-01-21T08:58:08.469Z,-0.41
2019-01-21T09:03:27.447Z,-0.35
2019-01-21T09:08:54.180Z,-0.16
2019-01-21T09:14:05.371Z,-0.23
2019-01-21T09:19:19.579Z,-0.50
2019-01-21T09:24:37.837Z,-0.26
2019-01-21T09:29:49.238Z,-0.10
2019-01-21T09:35:20.733Z,-0.18
2019-01-21T09:40:28.977Z,0.08
2019-01-21T09:45:40.238Z,-0.10
2019-01-21T09:50:37.643Z,0.26
2019-01-21T09:55:37.596Z,0.16
2019-01-21T10:00:34.516Z,0.51
2019-01-21T10:05:34.145Z,0.52
2019-01-21T10:11:03.591Z,0.48
2019-01-21T10:16:32.208Z,0.37
2019-01-21T10:21:43.229Z,0.64
2019-01-21T10:27:23.929Z,0.84
2019-01-21T10:33:20.743Z,0.94
2019-01-21T10:38:47.538Z,0.67
2019-01-21T10:43:58.666Z,0.23
2019-01-21T10:49:03.794Z,0.21
2019-01-21T10:54:14.638Z,0.61
2019-01-21T10:59:23.083Z,0.73
2019-01-21T11:04:53.195Z,0.70
2019-01-21T11:10:01.585Z,0.62
2019-01-21T11:15:22.224Z,0.63
2019-01-21T11:20:58.205Z,0.24
2019-01-21T11:26:30.922Z,0.59
2019-01-21T11:32:02.946Z,0.35
2019-01-21T11:37:40.495Z,0.37
2019-01-21T11:43:01.103Z,0.39
2019-01-21T11:48:12.443Z,0.67
2019-01-21T11:53:33.126Z,0.89
2019-01-21T11:58:49.967Z,0.59
2019-01-21T12:04:06.854Z,0.44
2019-01-21T12:09:24.637Z,0.08
2019-01-21T12:14:48.140Z,0.45
2019-01-21T12:20:08.012Z,0.44
2019-01-21T12:25:28.129Z,0.48
2019-01-21T12:30:51.681Z,-0.13
2019-01-21T12:36:05.712Z,0.11
2019-01-21T12:41:10.862Z,-0.11
2019-01-21T12:46:17.287Z,-0.15
2019-01-21T12:51:31.835Z,-0.13
2019-01-21T12:56:52.127Z,0.07
2019-01-21T13:02:00.528Z,-0.05
2019-01-21T13:07:24.300Z,0.06
2019-01-21T13:12:46.332Z,0.01
2019-01-21T13:17:51.208Z,0.14
2019-01-21T13:23:05.911Z,0.34
2019-01-21T13:28:23.762Z,0.35
2019-01-21T13:33:56.041Z,0.50
2019-01-21T13:39:10.474Z,0.52
2019-01-21T13:44:18.780Z,0.79
2019-01-21T13:49:43.718Z,0.63
2019-01-21T13:54:57.707Z,0.28
2019-01-21T14:00:20.850Z,0.21
2019-01-21T14:05:47.631Z,0.05
2019-01-21T14:11:01.986Z,-0.13
2019-01-21T14:16:39.540Z,-0.01
2019-01-21T14:22:09.185Z,-0.15
2019-01-21T14:27:37.417Z,-0.21
2019-01-21T14:33:10.150Z,-0.09
2019-01-21T14:38:34.625Z,-0.49
2019-01-21T14:43:59.531Z,-0.56
2019-01-21T14:49:16.807Z,-0.44
2019-01-21T14:54:22.419Z,-0.43
2019-01-21T14:59:59.719Z,-0.69
2019-01-21T15:05:21.575Z,-0.90
2019-01-21T15:10:29.959Z,-0.69
2019-01-21T15:15:59.849Z,-0.89
2019-01-21T15:21:08.201Z,-1.01
2019-01-21T15:26:19.025Z,-1.00
2019-01-21T15:31:48.919Z,-1.04
2019-01-21T15:37:18.677Z,-1.11
2019-01-21T15:42:29.576Z,-1.28
2019-01-21T15:47:44.122Z,-1.47
2019-01-21T15:53:01.424Z,-1.50
2019-01-21T15:58:07.576Z,-1.55
2019-01-21T16:03:26.676Z,-1.74
2019-01-21T16:08:29.022Z,-2.07
2019-01-21T16:13:37.130Z,-2.44
2019-01-21T16:18:42.425Z,-2.60
2019-01-21T16:24:20.178Z,-2.81
2019-01-21T16:29:36.552Z,-2.96
2019-01-21T16:34:47.930Z,-3.17
2019-01-21T16:40:20.233Z,-3.29
2019-01-21T16:45:17.630Z,-3.30
2019-01-21T16:50:14.844Z,-3.55
2019-01-21T16:55:11.883Z,-3.61
2019-01-21T17:00:13.146Z,-3.77
2019-01-21T17:05:11.646Z,-4.02
2019-01-21T17:10:10.713Z,-4.06
2019-01-21T17:15:11.593Z,-4.25
2019-01-21T17:20:16.374Z,-4.37
2019-01-21T17:25:13.780Z,-4.35
2019-01-21T17:30:15.421Z,-4.10
2019-01-21T17:35:13.843Z,-4.61
2019-01-21T17:40:15.811Z,-4.60
2019-01-21T17:45:17.756Z,-4.44
2019-01-21T17:50:17.005Z,-4.38
2019-01-21T17:55:14.684Z,-4.49
2019-01-21T18:00:18.464Z,-4.44
2019-01-21T18:05:16.466Z,-4.20
2019-01-21T18:10:16.821Z,-4.06
2019-01-21T18:15:15.038Z,-3.95
2019-01-21T18:20:18.819Z,-3.85
2019-01-21T18:25:16.255Z,-3.73
2019-01-21T18:30:17.834Z,-3.60
2019-01-21T18:35:15.004Z,-3.50
2019-01-21T18:40:15.595Z,-3.41
2019-01-21T18:45:18.199Z,-4.01
2019-01-21T18:50:15.371Z,-3.93
2019-01-21T18:55:12.329Z,-3.93
2019-01-21T19:00:19.877Z,-3.93
2019-01-21T19:05:32.271Z,-4.09
2019-01-21T19:10:29.210Z,-4.32
2019-01-21T19:15:29.325Z,-4.40
2019-01-21T19:20:26.246Z,-4.32
2019-01-21T19:25:39.460Z,-4.50
2019-01-21T19:30:36.357Z,-4.47
2019-01-21T19:35:34.126Z,-4.39
2019-01-21T19:40:32.211Z,-4.43
2019-01-21T19:45:29.351Z,-4.59
2019-01-21T19:50:26.467Z,-4.66
2019-01-21T19:55:38.923Z,-4.70
2019-01-21T20:00:36.696Z,-4.68
2019-01-21T20:05:33.647Z,-4.74
2019-01-21T20:10:30.559Z,-4.73
2019-01-21T20:15:27.518Z,-4.93
2019-01-21T20:20:35.087Z,-5.00
2019-01-21T20:25:32.010Z,-5.11
2019-01-21T20:30:29.001Z,-5.33
2019-01-21T20:35:26.029Z,-5.36
2019-01-21T20:40:27.946Z,-5.03
2019-01-21T20:45:24.859Z,-5.08
2019-01-21T20:50:25.464Z,-5.10
2019-01-21T20:55:22.809Z,-4.93
2019-01-21T21:00:25.567Z,-5.12
2019-01-21T21:05:23.084Z,-4.95
2019-01-21T21:10:20.101Z,-5.09
2019-01-21T21:15:21.451Z,-5.17
2019-01-21T21:20:18.141Z,-5.42
2019-01-21T21:25:18.481Z,-5.38
2019-01-21T21:30:20.094Z,-5.37
2019-01-21T21:35:16.719Z,-5.33
2019-01-21T21:40:16.599Z,-5.17
2019-01-21T21:45:16.172Z,-5.17
2019-01-21T21:50:16.776Z,-5.32
2019-01-21T21:55:13.634Z,-5.10
2019-01-21T22:00:23.107Z,-5.35
2019-01-21T22:05:20.311Z,-5.40
2019-01-21T22:10:24.227Z,-5.63
2019-01-21T22:15:22.983Z,-5.64
2019-01-21T22:20:26.337Z,-5.51
2019-01-21T22:25:23.211Z,-5.70
2019-01-21T22:30:23.558Z,-5.66
2019-01-21T22:35:20.564Z,-5.89
2019-01-21T22:40:20.228Z,-5.67
2019-01-21T22:45:18.636Z,-5.99
2019-01-21T22:50:16.901Z,-5.93
2019-01-21T22:55:15.130Z,-6.06
2019-01-21T23:00:34.680Z,-6.30
2019-01-21T23:05:31.601Z,-6.24
2019-01-21T23:10:29.547Z,-6.33
2019-01-21T23:15:26.437Z,-6.41
2019-01-21T23:20:23.611Z,-6.55
2019-01-21T23:25:20.515Z,-6.59
2019-01-21T23:30:20.516Z,-6.65
2019-01-21T23:35:18.203Z,-6.82
2019-01-21T23:40:15.470Z,-6.78
2019-01-21T23:45:12.381Z,-6.98
2019-01-21T23:50:15.603Z,-6.78
2019-01-21T23:55:13.011Z,-6.84
